Owensburg, Indiana
Current Conditions -  °F | °C
As of 4:53 AM on Saturday 22 Nov 2014 (Local Time) from KBMG Reporting Station
Light Rain Light Rain  
Wind Chill: 27°   Ceiling: 5000
Heat Index: 34°   Visibility: 9mi
Dew Point: 30°   Wind: 8mph
Humidity: 85%   Direction: 140°SE
Pressure: 30.23"   Gusts: NA
Location:  38.92°N, 86.73°W
Report Text: KBMG 220953Z AUTO 14007KT 9SM -RA SCT043 OVC050 01/M01 A3023 RMK AO2 SLP243 P0001 T00111011
Loading
Personal Weather Stations






























Interactive Weather Map New forecast layout! Learn more

10-Day Weather Forecast

Advertisements
Track Severe Weather on mobile